Time;durP1;ratioP1;P1;durP2;ratioP2;P2;SDS_P1;SDS_P2;PMS_P1;PMS_P2;Temp;Humidity;BMP_temperature;BMP_pressure;BME280_temperature;BME280_humidity;BME280_pressure;Samples;Min_cycle;Max_cycle;Signal;HPM_P1;HPM_P2
2023/05/01 00:00:05;;;;;;;6.90;5.10;;;;;;;18.96;50.47;96205.63;5142359;27;20085;-57
2023/05/01 00:02:33;;;;;;;6.57;4.72;;;;;;;18.87;50.94;96204.16;5138982;27;20507;-57
2023/05/01 00:05:01;;;;;;;6.50;4.70;;;;;;;18.78;51.78;96195.50;5143642;27;21019;-53
2023/05/01 00:07:30;;;;;;;7.28;5.28;;;;;;;18.52;52.45;96198.09;5141242;27;20538;-56
2023/05/01 00:09:59;;;;;;;6.30;4.68;;;;;;;18.53;52.61;96183.69;5142700;27;20076;-51
2023/05/01 00:12:27;;;;;;;6.35;4.90;;;;;;;18.10;54.37;96195.47;5144991;27;20054;-53
2023/05/01 00:14:57;;;;;;;6.97;5.22;;;;;;;18.56;53.43;96192.13;5144799;27;20549;-54
2023/05/01 00:17:25;;;;;;;7.68;4.82;;;;;;;18.44;54.20;96191.91;5146305;27;20485;-54
2023/05/01 00:19:54;;;;;;;7.30;5.15;;;;;;;18.48;54.01;96190.47;5144305;27;20646;-53
2023/05/01 00:22:23;;;;;;;9.98;4.75;;;;;;;18.18;54.54;96186.44;5148199;27;20485;-49
2023/05/01 00:24:51;;;;;;;6.38;4.78;;;;;;;18.27;54.83;96182.56;5144369;27;20465;-53
2023/05/01 00:27:19;;;;;;;7.65;4.85;;;;;;;18.33;55.22;96183.63;5149237;27;20090;-55
2023/05/01 00:29:48;;;;;;;7.00;4.70;;;;;;;18.24;55.54;96175.00;5127803;27;20623;-54
2023/05/01 00:32:18;;;;;;;8.40;4.70;;;;;;;18.08;56.93;96170.81;5141751;27;20112;-56
2023/05/01 00:34:47;;;;;;;7.57;4.70;;;;;;;17.76;58.10;96164.28;5128829;27;20074;-51
2023/05/01 00:37:16;;;;;;;6.88;4.93;;;;;;;18.42;55.54;96166.41;5142125;27;20070;-56
2023/05/01 00:39:44;;;;;;;7.22;4.82;;;;;;;18.40;54.90;96155.09;5142638;27;20097;-57
2023/05/01 00:42:12;;;;;;;6.75;5.30;;;;;;;18.68;53.88;96160.31;5142115;27;20086;-57
2023/05/01 00:44:41;;;;;;;7.18;5.10;;;;;;;18.56;54.12;96153.94;5145999;27;20082;-59
2023/05/01 00:47:09;;;;;;;7.57;4.65;;;;;;;18.42;55.09;96158.41;5143672;27;20081;-54
2023/05/01 00:49:41;;;;;;;8.60;4.32;;;;;;;18.80;53.84;96158.72;5139636;27;20074;-54
2023/05/01 00:52:10;;;;;;;7.70;5.22;;;;;;;18.65;54.27;96155.38;5148650;27;20078;-57
2023/05/01 00:54:39;;;;;;;6.97;4.90;;;;;;;18.77;53.55;96152.97;5141797;27;20070;-51
2023/05/01 00:57:08;;;;;;;7.03;4.78;;;;;;;18.91;52.76;96154.63;5136971;27;20078;-57
2023/05/01 00:59:38;;;;;;;7.05;5.07;;;;;;;18.72;53.15;96146.41;5141782;27;20085;-58
2023/05/01 01:02:06;;;;;;;6.82;5.10;;;;;;;18.70;53.60;96144.91;5141466;27;20077;-49
2023/05/01 01:04:34;;;;;;;8.77;5.32;;;;;;;18.03;56.47;96149.22;5145922;27;20070;-50
2023/05/01 01:07:10;;;;;;;7.50;5.75;;;;;;;18.21;56.04;96148.69;5147775;27;20078;-58
2023/05/01 01:09:44;;;;;;;9.23;5.05;;;;;;;18.39;55.78;96135.59;5146422;27;20081;-55
2023/05/01 01:12:19;;;;;;;6.15;4.82;;;;;;;18.55;54.59;96136.25;5142681;27;20109;-54
2023/05/01 01:14:50;;;;;;;6.80;4.50;;;;;;;18.28;55.88;96138.88;5143034;27;20086;-53
2023/05/01 01:17:28;;;;;;;8.95;4.95;;;;;;;18.16;55.97;96143.13;5143139;27;20078;-51
2023/05/01 01:20:25;;;;;;;7.07;5.22;;;;;;;18.16;56.52;96129.78;5145072;27;20087;-57
2023/05/01 01:23:11;;;;;;;9.38;5.55;;;;;;;17.92;57.17;96131.13;5142565;27;20071;-55
2023/05/01 01:26:00;;;;;;;7.78;4.90;;;;;;;17.94;58.45;96129.91;5142240;27;20082;-58
2023/05/01 01:28:39;;;;;;;7.18;5.45;;;;;;;17.72;59.61;96128.31;5151053;27;20816;-54
2023/05/01 01:31:14;;;;;;;6.85;4.57;;;;;;;17.94;59.24;96129.09;5145664;27;20077;-54
2023/05/01 01:34:06;;;;;;;6.85;5.05;;;;;;;17.44;62.31;96131.03;5146396;27;20081;-58
2023/05/01 01:36:40;;;;;;;9.40;5.45;;;;;;;17.53;62.01;96124.53;5138791;27;20083;-51
2023/05/01 01:39:11;;;;;;;7.50;5.10;;;;;;;17.77;61.82;96126.75;5141776;27;20844;-50
2023/05/01 01:41:41;;;;;;;7.65;5.80;;;;;;;18.00;60.62;96120.28;5147993;27;20078;-54
2023/05/01 01:44:13;;;;;;;9.98;5.47;;;;;;;18.12;59.90;96118.69;5146884;27;20097;-53
2023/05/01 01:46:42;;;;;;;6.95;4.95;;;;;;;17.98;58.96;96115.13;5143771;27;20105;-53
2023/05/01 01:49:17;;;;;;;7.28;5.20;;;;;;;18.36;58.42;96111.97;5148035;27;20078;-50
2023/05/01 01:51:48;;;;;;;7.00;5.45;;;;;;;18.15;59.15;96126.28;5151978;27;20093;-51
2023/05/01 01:54:19;;;;;;;8.90;5.40;;;;;;;18.37;57.98;96118.94;5150607;27;20529;-54
2023/05/01 01:56:49;;;;;;;9.82;6.18;;;;;;;18.31;58.40;96121.63;5145536;27;20086;-56
2023/05/01 01:59:18;;;;;;;11.57;6.15;;;;;;;18.06;58.99;96119.47;5148989;27;20093;-52
2023/05/01 02:01:47;;;;;;;11.57;6.18;;;;;;;18.54;56.56;96114.06;5150971;27;20803;-51
2023/05/01 02:04:18;;;;;;;8.88;6.00;;;;;;;18.50;56.36;96113.63;5147769;27;20074;-55
2023/05/01 02:06:47;;;;;;;9.70;6.28;;;;;;;18.52;56.30;96105.44;5148056;27;20163;-54
2023/05/01 02:09:16;;;;;;;8.50;6.22;;;;;;;18.20;58.01;96107.00;5148837;27;20046;-51
2023/05/01 02:11:46;;;;;;;8.00;5.35;;;;;;;17.95;59.61;96106.72;5148979;27;20473;-55
2023/05/01 02:14:16;;;;;;;7.10;5.60;;;;;;;18.17;58.05;96105.56;5145691;27;20075;-50
2023/05/01 02:16:45;;;;;;;7.55;5.47;;;;;;;18.17;58.42;96100.22;5146685;27;20078;-55
2023/05/01 02:19:14;;;;;;;8.02;5.53;;;;;;;18.20;58.31;96096.31;5145502;27;20489;-55
2023/05/01 02:21:45;;;;;;;7.80;5.20;;;;;;;18.00;59.04;96093.59;5151877;27;20094;-56
2023/05/01 02:24:14;;;;;;;10.38;5.75;;;;;;;18.02;59.43;96091.53;5148382;27;20070;-50
2023/05/01 02:26:44;;;;;;;7.35;5.22;;;;;;;17.70;61.36;96090.38;5145739;27;20086;-56
2023/05/01 02:29:12;;;;;;;9.73;5.28;;;;;;;17.60;62.15;96085.41;5144789;27;20050;-53
2023/05/01 02:31:40;;;;;;;7.32;5.65;;;;;;;17.77;61.05;96084.06;5142674;27;20089;-53
2023/05/01 02:34:09;;;;;;;6.97;5.22;;;;;;;17.46;64.08;96089.03;5148779;27;20609;-57
2023/05/01 02:36:37;;;;;;;8.45;5.28;;;;;;;17.98;60.48;96085.78;5144320;27;20094;-58
2023/05/01 02:39:07;;;;;;;7.43;5.53;;;;;;;17.63;62.41;96090.34;5149075;27;20082;-54
2023/05/01 02:41:37;;;;;;;7.53;5.60;;;;;;;17.81;61.89;96089.81;5150815;27;20078;-55
2023/05/01 02:44:07;;;;;;;8.13;5.50;;;;;;;17.88;61.35;96076.53;5143667;27;20089;-58
2023/05/01 02:46:36;;;;;;;10.43;5.60;;;;;;;17.91;61.18;96090.28;5142563;27;20088;-55
2023/05/01 02:49:05;;;;;;;8.45;5.18;;;;;;;17.97;60.27;96078.81;5145722;27;20070;-50
2023/05/01 02:51:34;;;;;;;10.52;5.93;;;;;;;17.93;60.20;96077.56;5141632;27;20078;-53
2023/05/01 02:54:03;;;;;;;9.18;5.55;;;;;;;17.95;60.24;96080.84;5144117;27;20470;-55
2023/05/01 02:56:32;;;;;;;7.88;5.40;;;;;;;18.02;59.77;96076.34;5143282;27;20093;-53
2023/05/01 02:59:01;;;;;;;8.50;5.63;;;;;;;17.57;62.07;96061.78;5143225;27;20070;-56
2023/05/01 03:01:29;;;;;;;8.80;5.32;;;;;;;17.50;63.13;96066.28;5150975;27;20070;-51
2023/05/01 03:03:57;;;;;;;9.50;6.00;;;;;;;17.54;63.53;96063.00;5147976;27;20526;-56
2023/05/01 03:06:27;;;;;;;11.25;5.63;;;;;;;17.63;62.93;96062.84;5146419;27;20081;-53
2023/05/01 03:08:56;;;;;;;10.05;6.03;;;;;;;17.59;63.02;96058.94;5147645;27;20082;-56
2023/05/01 03:11:24;;;;;;;8.35;6.10;;;;;;;17.70;62.25;96056.53;5146991;27;20082;-56
2023/05/01 03:13:54;;;;;;;7.93;5.47;;;;;;;17.21;65.30;96054.84;5143705;27;20089;-51
2023/05/01 03:16:22;;;;;;;8.82;6.00;;;;;;;16.65;67.62;96060.13;5143672;27;20077;-50
2023/05/01 03:18:50;;;;;;;7.15;5.25;;;;;;;16.91;67.24;96056.91;5145782;27;20529;-52
2023/05/01 03:21:19;;;;;;;11.38;6.13;;;;;;;16.54;69.22;96060.66;5145093;27;20082;-54
2023/05/01 03:23:47;;;;;;;6.22;4.60;;;;;;;16.85;69.27;96055.81;5145841;27;20078;-53
2023/05/01 03:26:16;;;;;;;7.82;5.63;;;;;;;16.92;66.82;96049.72;5146548;27;20097;-52
2023/05/01 03:28:44;;;;;;;8.60;5.65;;;;;;;16.46;69.87;96066.13;5146795;27;20556;-50
2023/05/01 03:31:14;;;;;;;7.30;5.45;;;;;;;17.08;67.62;96049.44;5151248;27;20090;-54
2023/05/01 03:33:42;;;;;;;8.50;5.18;;;;;;;16.66;67.32;96059.13;5143158;27;20095;-52
2023/05/01 03:36:10;;;;;;;9.27;5.78;;;;;;;16.47;70.56;96057.13;5142233;27;20526;-49
2023/05/01 03:38:39;;;;;;;8.27;5.75;;;;;;;17.61;64.28;96051.56;5144777;27;20078;-53
2023/05/01 03:41:07;;;;;;;8.43;5.75;;;;;;;17.73;62.20;96048.13;5147515;27;20081;-57
2023/05/01 03:43:36;;;;;;;8.45;5.70;;;;;;;17.16;64.02;96051.13;5142674;27;20442;-57
2023/05/01 03:46:04;;;;;;;8.80;6.20;;;;;;;16.82;64.95;96048.22;5146959;27;20152;-57
2023/05/01 03:48:34;;;;;;;8.30;5.65;;;;;;;17.68;62.92;96047.06;5145054;27;20083;-51
2023/05/01 03:51:02;;;;;;;9.33;5.93;;;;;;;17.74;62.09;96036.44;5147009;27;20097;-56
2023/05/01 03:53:31;;;;;;;8.43;5.68;;;;;;;17.07;64.66;96039.81;5144379;27;20529;-52
2023/05/01 03:55:59;;;;;;;10.32;5.55;;;;;;;16.93;64.55;96040.72;5139100;27;20475;-53
2023/05/01 03:58:28;;;;;;;10.32;5.72;;;;;;;17.27;66.38;96035.41;5145587;27;20101;-57
2023/05/01 04:00:59;;;;;;;10.15;5.75;;;;;;;17.55;62.86;96037.19;5145490;27;20093;-53
2023/05/01 04:03:28;;;;;;;9.35;6.38;;;;;;;17.62;62.37;96035.38;5148091;27;20074;-52
2023/05/01 04:05:58;;;;;;;8.60;5.55;;;;;;;17.63;62.66;96036.19;5149791;27;20085;-55
2023/05/01 04:08:26;;;;;;;13.68;6.03;;;;;;;17.70;62.63;96026.38;5143430;27;20085;-55
2023/05/01 04:10:55;;;;;;;8.80;5.05;;;;;;;17.59;62.10;96034.94;5147176;27;20097;-56
2023/05/01 04:13:23;;;;;;;11.55;6.05;;;;;;;17.50;63.30;96032.44;5145990;27;20156;-55
2023/05/01 04:15:54;;;;;;;9.02;6.00;;;;;;;17.92;60.92;96029.75;5143824;27;20085;-51
2023/05/01 04:18:22;;;;;;;7.90;6.10;;;;;;;17.95;60.21;96034.69;5144870;27;20109;-54
2023/05/01 04:20:51;;;;;;;10.30;6.18;;;;;;;18.30;58.90;96031.88;5143290;27;20082;-50
2023/05/01 04:23:20;;;;;;;8.10;5.90;;;;;;;18.34;58.63;96033.09;5140436;27;20085;-57
2023/05/01 04:25:51;;;;;;;9.73;5.63;;;;;;;18.29;58.94;96032.91;5147462;27;20070;-56
2023/05/01 04:28:20;;;;;;;9.57;5.78;;;;;;;18.24;59.86;96031.69;5146753;27;20085;-50
2023/05/01 04:30:49;;;;;;;11.02;5.53;;;;;;;18.21;58.55;96041.94;5146368;27;20098;-53
2023/05/01 04:33:17;;;;;;;9.23;5.95;;;;;;;18.36;57.97;96039.88;5143075;27;20289;-55
2023/05/01 04:35:45;;;;;;;8.88;6.18;;;;;;;18.80;56.00;96037.69;5148652;27;20458;-55
2023/05/01 04:38:14;;;;;;;8.27;5.80;;;;;;;19.42;53.53;96036.34;5142648;27;20082;-52
2023/05/01 04:40:43;;;;;;;9.82;6.60;;;;;;;19.46;54.70;96042.91;5147126;27;20078;-54
2023/05/01 04:43:12;;;;;;;7.70;5.80;;;;;;;19.95;51.98;96038.00;5147597;27;20081;-55
2023/05/01 04:45:40;;;;;;;8.30;5.80;;;;;;;20.25;50.49;96039.06;5147061;27;20075;-55
2023/05/01 04:48:08;;;;;;;7.95;5.65;;;;;;;20.40;49.05;96044.13;5147613;27;20083;-56
2023/05/01 04:50:37;;;;;;;6.45;5.07;;;;;;;19.75;50.69;96049.66;5148236;27;20074;-54
2023/05/01 04:53:05;;;;;;;10.85;5.90;;;;;;;20.38;49.35;96046.22;5142304;27;20093;-48
2023/05/01 04:55:33;;;;;;;8.63;5.60;;;;;;;20.33;48.10;96041.47;5147620;27;20082;-56
2023/05/01 04:58:03;;;;;;;7.28;5.63;;;;;;;20.33;48.31;96040.66;5144435;27;20132;-51
2023/05/01 05:00:32;;;;;;;6.93;5.95;;;;;;;20.30;49.16;96044.63;5141449;27;20075;-52
2023/05/01 05:03:00;;;;;;;7.75;6.28;;;;;;;20.21;48.82;96043.22;5143994;27;20580;-56
2023/05/01 05:05:29;;;;;;;8.40;6.13;;;;;;;19.67;49.97;96039.16;5144528;27;23697;-53
2023/05/01 05:07:58;;;;;;;8.60;6.47;;;;;;;19.76;51.35;96037.91;5146058;27;20070;-56
2023/05/01 05:10:26;;;;;;;8.32;6.15;;;;;;;20.02;51.26;96036.13;5143894;27;20082;-53
2023/05/01 05:12:54;;;;;;;8.70;5.90;;;;;;;20.31;50.15;96032.84;5142826;27;20078;-53
2023/05/01 05:15:24;;;;;;;8.57;6.43;;;;;;;19.31;51.92;96040.50;5143539;27;20109;-55
2023/05/01 05:17:52;;;;;;;12.63;5.93;;;;;;;19.42;52.86;96033.66;5151703;27;20093;-52
2023/05/01 05:20:23;;;;;;;7.65;6.22;;;;;;;19.83;51.42;96029.84;5148788;27;20533;-56
2023/05/01 05:22:51;;;;;;;7.18;5.82;;;;;;;20.82;48.79;96025.72;5150090;27;20556;-57
2023/05/01 05:25:20;;;;;;;9.38;5.80;;;;;;;20.84;47.89;96027.13;5148782;27;20093;-53
2023/05/01 05:27:48;;;;;;;9.00;6.10;;;;;;;20.53;48.36;96027.16;5146577;27;20082;-53
2023/05/01 05:30:17;;;;;;;8.18;5.75;;;;;;;21.03;47.15;96027.19;5145326;27;20459;-50
2023/05/01 05:32:47;;;;;;;6.63;5.10;;;;;;;21.01;46.65;96024.69;5145989;27;20081;-54
2023/05/01 05:35:16;;;;;;;6.75;5.20;;;;;;;20.41;49.07;96039.59;5147418;27;20082;-54
2023/05/01 05:37:44;;;;;;;7.57;5.53;;;;;;;20.69;48.84;96026.63;5157738;27;20074;-52
2023/05/01 05:40:13;;;;;;;9.68;6.18;;;;;;;19.99;51.24;96034.69;5150104;27;20078;-54
2023/05/01 05:42:41;;;;;;;10.45;6.10;;;;;;;20.75;49.15;96033.81;5148785;27;20082;-54
2023/05/01 05:45:10;;;;;;;8.52;5.95;;;;;;;21.33;47.39;96022.75;5148724;27;20093;-54
2023/05/01 05:47:39;;;;;;;7.93;5.72;;;;;;;21.37;46.97;96020.47;5145362;27;23250;-52
2023/05/01 05:50:10;;;;;;;8.30;6.15;;;;;;;21.31;47.43;96029.34;5148226;27;20097;-54
2023/05/01 05:52:38;;;;;;;7.72;6.40;;;;;;;20.76;48.60;96031.94;5147196;27;20642;-51
2023/05/01 05:55:07;;;;;;;8.80;6.05;;;;;;;21.48;47.21;96032.31;5146933;27;20556;-57
2023/05/01 05:57:36;;;;;;;9.32;6.28;;;;;;;21.80;47.05;96035.63;5147199;27;20078;-53
2023/05/01 06:00:06;;;;;;;9.00;6.57;;;;;;;20.60;49.32;96039.47;5150805;27;20086;-52
2023/05/01 06:02:34;;;;;;;9.50;6.65;;;;;;;20.31;50.88;96032.84;5144659;27;20085;-53
2023/05/01 06:05:02;;;;;;;9.57;6.82;;;;;;;20.53;50.93;96029.84;5148497;27;20086;-56
2023/05/01 06:07:32;;;;;;;8.50;6.43;;;;;;;20.90;48.57;96025.44;5149438;27;20113;-55
2023/05/01 06:10:04;;;;;;;7.47;6.53;;;;;;;20.59;50.43;96026.31;5148137;27;20907;-54
2023/05/01 06:12:32;;;;;;;8.70;6.40;;;;;;;21.52;48.13;96026.25;5148619;27;20085;-56
2023/05/01 06:15:05;;;;;;;7.80;6.38;;;;;;;20.99;49.59;96034.00;5146589;27;20058;-53
2023/05/01 06:17:34;;;;;;;9.35;6.53;;;;;;;21.30;48.70;96033.91;5146032;27;20077;-58
2023/05/01 06:20:05;;;;;;;8.30;6.53;;;;;;;21.00;50.00;96033.78;5155669;27;20457;-54
2023/05/01 06:22:34;;;;;;;11.02;6.20;;;;;;;20.29;50.37;96040.28;5149639;27;20105;-56
2023/05/01 06:25:03;;;;;;;8.98;6.68;;;;;;;22.01;47.86;96034.34;5153136;27;20529;-56
2023/05/01 06:27:31;;;;;;;11.80;6.75;;;;;;;21.20;48.20;96035.47;5148361;27;20079;-55
2023/05/01 06:29:59;;;;;;;8.93;6.43;;;;;;;20.44;50.40;96036.47;5145930;27;20074;-49
2023/05/01 06:32:27;;;;;;;9.63;7.15;;;;;;;20.30;50.21;96033.06;5144830;27;20086;-57
2023/05/01 06:34:56;;;;;;;7.93;6.03;;;;;;;20.04;51.81;96040.22;5146309;27;20662;-51
2023/05/01 06:37:24;;;;;;;9.52;6.32;;;;;;;19.43;53.80;96038.78;5144076;27;20648;-56
2023/05/01 06:39:54;;;;;;;8.65;6.60;;;;;;;20.22;51.06;96036.00;5144650;27;20082;-55
2023/05/01 06:42:23;;;;;;;10.65;6.43;;;;;;;19.97;52.98;96038.63;5152541;27;20082;-52
2023/05/01 06:44:51;;;;;;;8.32;6.88;;;;;;;21.47;48.64;96038.69;5147294;27;20097;-54
2023/05/01 06:47:20;;;;;;;9.52;7.07;;;;;;;20.19;51.96;96047.16;5145927;27;20082;-56
2023/05/01 06:49:49;;;;;;;10.18;7.30;;;;;;;21.16;49.26;96031.56;5146254;27;20085;-57
2023/05/01 06:52:17;;;;;;;9.00;6.78;;;;;;;21.03;49.96;96032.53;5146787;27;20104;-53
2023/05/01 06:54:45;;;;;;;9.60;7.00;;;;;;;21.82;48.61;96030.88;5146036;27;20086;-58
2023/05/01 06:57:15;;;;;;;10.63;6.82;;;;;;;21.30;49.01;96033.06;5141383;27;20489;-55
2023/05/01 06:59:44;;;;;;;10.33;7.00;;;;;;;21.50;48.40;96033.69;5144355;27;20077;-54
2023/05/01 07:02:12;;;;;;;7.70;6.63;;;;;;;23.32;44.05;96026.31;5140906;27;20098;-55
2023/05/01 07:04:40;;;;;;;10.30;7.25;;;;;;;23.28;42.57;96025.16;5146430;27;20074;-51
2023/05/01 07:07:09;;;;;;;8.82;6.90;;;;;;;22.27;44.97;96031.31;5148592;27;20085;-55
2023/05/01 07:09:37;;;;;;;8.43;7.40;;;;;;;21.87;46.43;96033.69;5144585;27;20604;-56
2023/05/01 07:12:06;;;;;;;8.75;6.75;;;;;;;23.02;43.62;96024.59;5139003;27;20070;-56
2023/05/01 07:14:36;;;;;;;14.85;6.88;;;;;;;22.07;45.26;96043.34;5146340;27;20066;-57
2023/05/01 07:17:04;;;;;;;7.60;6.63;;;;;;;22.80;44.12;96024.28;5144530;27;20070;-53
2023/05/01 07:19:32;;;;;;;8.25;6.68;;;;;;;24.43;41.48;96021.56;5138807;27;20085;-57
2023/05/01 07:22:02;;;;;;;8.20;6.97;;;;;;;22.37;44.13;96029.94;5140752;27;20364;-54
2023/05/01 07:24:30;;;;;;;8.80;6.80;;;;;;;23.77;43.10;96021.09;5144632;27;20082;-58
2023/05/01 07:26:58;;;;;;;7.75;6.95;;;;;;;24.65;40.76;96021.69;5142404;27;20079;-56
2023/05/01 07:29:27;;;;;;;8.82;6.60;;;;;;;24.04;40.89;96020.56;5138761;27;20089;-56
2023/05/01 07:31:57;;;;;;;9.27;7.05;;;;;;;23.82;41.32;96025.78;5142445;27;20565;-56
2023/05/01 07:34:25;;;;;;;9.70;7.07;;;;;;;24.21;41.13;96018.72;5140852;27;20073;-55
2023/05/01 07:36:54;;;;;;;9.43;7.53;;;;;;;23.11;42.70;96030.44;5145426;27;20794;-55
2023/05/01 07:39:22;;;;;;;8.35;6.80;;;;;;;24.55;40.81;96025.03;5144561;27;20546;-54
2023/05/01 07:41:50;;;;;;;21.33;16.73;;;;;;;24.41;40.42;96029.09;5141321;27;20090;-53
2023/05/01 07:44:18;;;;;;;8.25;6.43;;;;;;;25.12;38.93;96020.53;5144369;27;20120;-52
2023/05/01 07:46:47;;;;;;;7.47;6.40;;;;;;;26.05;38.03;96021.53;5141770;27;20081;-54
2023/05/01 07:49:16;;;;;;;9.82;6.30;;;;;;;25.21;37.89;96019.06;5145614;27;20546;-56
2023/05/01 07:51:44;;;;;;;6.80;6.10;;;;;;;24.22;40.67;96023.03;5144163;27;20082;-54
2023/05/01 07:54:14;;;;;;;7.82;6.38;;;;;;;24.18;40.79;96021.91;5141444;27;21068;-53
2023/05/01 07:56:43;;;;;;;16.10;14.55;;;;;;;25.22;38.82;96020.69;5142247;27;20100;-52
2023/05/01 07:59:11;;;;;;;8.95;7.60;;;;;;;26.09;37.89;96027.25;5145767;27;20089;-55
2023/05/01 08:01:40;;;;;;;8.30;6.43;;;;;;;25.44;38.13;96028.84;5143595;27;20074;-57
2023/05/01 08:04:08;;;;;;;9.20;6.53;;;;;;;24.56;39.80;96036.63;5143831;27;20089;-52
2023/05/01 08:06:38;;;;;;;8.77;6.20;;;;;;;25.64;37.41;96031.81;5137894;27;20089;-53
2023/05/01 08:09:09;;;;;;;7.10;6.07;;;;;;;25.38;37.82;96035.25;5141442;27;20066;-51
2023/05/01 08:11:38;;;;;;;7.75;6.80;;;;;;;26.58;36.01;96029.94;5141913;27;20079;-55
2023/05/01 08:14:07;;;;;;;11.35;6.80;;;;;;;26.52;36.53;96038.00;5145412;27;20041;-53
2023/05/01 08:16:35;;;;;;;8.63;6.30;;;;;;;26.15;36.71;96034.31;5140478;27;20074;-53
2023/05/01 08:19:04;;;;;;;7.72;6.20;;;;;;;24.78;39.16;96047.53;5140487;27;20082;-55
2023/05/01 08:21:32;;;;;;;9.38;6.57;;;;;;;24.89;38.78;96051.19;5141123;27;20096;-54
2023/05/01 08:24:02;;;;;;;8.38;6.40;;;;;;;24.55;38.93;96045.78;5139501;27;20514;-55
2023/05/01 08:26:30;;;;;;;7.00;6.30;;;;;;;24.20;40.24;96054.00;5152244;27;20082;-57
2023/05/01 08:28:59;;;;;;;7.75;6.45;;;;;;;25.01;39.48;96052.72;5143260;27;20074;-53
2023/05/01 08:31:27;;;;;;;7.75;6.88;;;;;;;25.71;38.23;96045.16;5145143;27;20101;-55
2023/05/01 08:33:56;;;;;;;10.65;6.95;;;;;;;25.86;38.21;96047.25;5141842;27;20082;-55
2023/05/01 08:36:24;;;;;;;8.27;6.75;;;;;;;25.66;39.25;96040.47;5138306;27;20082;-55
2023/05/01 08:38:52;;;;;;;9.85;6.75;;;;;;;25.51;38.15;96042.97;5139170;27;20102;-56
2023/05/01 08:41:22;;;;;;;8.85;6.43;;;;;;;26.04;37.96;96041.50;5145017;27;20082;-55
2023/05/01 08:43:51;;;;;;;8.80;6.40;;;;;;;25.51;37.99;96048.38;5142628;27;20086;-50
2023/05/01 08:46:26;;;;;;;10.20;6.60;;;;;;;26.49;36.94;96043.91;5150603;27;20089;-56
2023/05/01 08:48:57;;;;;;;8.75;6.30;;;;;;;26.99;36.11;96047.34;5147716;27;20070;-54
2023/05/01 08:51:26;;;;;;;7.55;5.93;;;;;;;25.37;39.23;96050.63;5147395;27;20082;-59
2023/05/01 08:53:55;;;;;;;6.88;5.90;;;;;;;24.06;41.35;96062.38;5142394;27;20066;-56
2023/05/01 08:56:25;;;;;;;8.40;6.43;;;;;;;24.89;40.29;96054.72;5140378;27;20097;-59
2023/05/01 08:58:54;;;;;;;6.85;6.10;;;;;;;25.08;39.33;96055.25;5134534;27;20078;-59
2023/05/01 09:01:22;;;;;;;8.48;6.13;;;;;;;24.13;42.38;96067.63;5139476;27;20097;-59
2023/05/01 09:03:51;;;;;;;8.88;6.45;;;;;;;23.59;43.20;96059.75;5142917;27;20494;-59
2023/05/01 09:06:20;;;;;;;8.57;6.40;;;;;;;24.01;41.49;96061.44;5146536;27;20480;-59
2023/05/01 09:08:48;;;;;;;7.57;6.10;;;;;;;24.39;41.63;96060.81;5142650;27;20101;-59
2023/05/01 09:11:17;;;;;;;8.55;6.55;;;;;;;24.73;40.16;96063.59;5144858;27;20087;-57
2023/05/01 09:13:47;;;;;;;8.80;6.60;;;;;;;24.72;40.03;96054.69;5143263;27;20074;-59
2023/05/01 09:16:15;;;;;;;8.65;6.22;;;;;;;24.51;39.60;96064.31;5137237;27;20078;-58
2023/05/01 09:18:43;;;;;;;7.53;6.30;;;;;;;24.87;40.48;96067.63;5141586;27;20085;-58
2023/05/01 09:21:12;;;;;;;8.15;6.32;;;;;;;25.61;39.20;96062.03;5140979;27;20066;-56
2023/05/01 09:23:40;;;;;;;9.02;6.55;;;;;;;23.58;41.99;96073.47;5143843;27;20070;-57
2023/05/01 09:26:08;;;;;;;8.48;6.72;;;;;;;24.27;42.28;96068.16;5144994;27;20097;-57
2023/05/01 09:28:41;;;;;;;8.05;7.25;;;;;;;24.85;40.19;96070.56;5145128;27;20722;-57
2023/05/01 09:31:25;;;;;;;8.05;6.63;;;;;;;25.02;41.21;96072.47;5140897;27;20062;-60
2023/05/01 09:33:54;;;;;;;7.90;6.45;;;;;;;25.49;40.82;96061.31;5147062;27;20069;-59
2023/05/01 09:36:23;;;;;;;8.10;6.75;;;;;;;24.51;41.38;96072.41;5141996;27;20092;-55
2023/05/01 09:38:52;;;;;;;7.05;5.95;;;;;;;23.64;42.86;96070.63;5143053;27;20802;-59
2023/05/01 09:41:23;;;;;;;8.25;6.32;;;;;;;24.63;41.75;96069.63;5147786;27;20121;-57
2023/05/01 09:43:52;;;;;;;10.80;6.47;;;;;;;24.98;41.42;96072.13;5143950;27;20089;-59
2023/05/01 09:46:23;;;;;;;7.88;6.80;;;;;;;24.39;43.09;96074.28;5145528;27;20552;-57
2023/05/01 09:48:55;;;;;;;8.15;7.05;;;;;;;24.38;43.06;96073.47;5143564;27;20108;-56
2023/05/01 09:51:26;;;;;;;7.97;6.68;;;;;;;24.43;42.61;96072.78;5144626;27;20074;-59
2023/05/01 09:53:56;;;;;;;8.90;5.95;;;;;;;23.33;44.16;96081.75;5140702;27;20533;-59
2023/05/01 09:56:26;;;;;;;8.85;7.55;;;;;;;23.88;46.04;96076.81;5137563;27;20440;-54
2023/05/01 09:58:55;;;;;;;8.68;6.78;;;;;;;24.40;42.69;96078.69;5140692;27;20082;-56
2023/05/01 10:01:43;;;;;;;7.25;5.65;;;;;;;23.72;44.32;96074.88;5139715;27;20563;-52
2023/05/01 10:04:11;;;;;;;7.32;6.25;;;;;;;23.03;46.91;96096.16;5145793;27;20082;-52
2023/05/01 10:06:41;;;;;;;7.85;6.05;;;;;;;23.08;46.00;96076.59;5147914;27;20086;-59
2023/05/01 10:09:15;;;;;;;10.55;6.32;;;;;;;22.73;49.44;96082.72;5141957;27;20086;-58
2023/05/01 10:11:50;;;;;;;9.77;6.65;;;;;;;22.74;51.35;96087.03;5142772;27;20090;-56
2023/05/01 10:14:20;;;;;;;8.18;6.13;;;;;;;22.54;49.88;96086.53;5141923;27;20093;-51
2023/05/01 10:16:51;;;;;;;8.38;6.53;;;;;;;22.74;49.10;96085.16;5140737;27;20627;-57
2023/05/01 10:19:21;;;;;;;10.15;8.10;;;;;;;23.09;47.79;96084.47;5139851;27;20467;-56
2023/05/01 10:21:49;;;;;;;8.05;6.90;;;;;;;22.74;49.75;96089.72;5142774;27;20078;-59
2023/05/01 10:24:17;;;;;;;8.50;6.88;;;;;;;21.12;59.63;96087.50;5142812;27;20081;-58
2023/05/01 10:26:48;;;;;;;9.40;7.00;;;;;;;21.44;65.27;96098.16;5146706;27;20074;-58
2023/05/01 10:29:16;;;;;;;12.25;6.70;;;;;;;21.56;66.17;96086.47;5143697;27;20067;-56
2023/05/01 10:31:44;;;;;;;10.63;8.32;;;;;;;;;;5147805;27;20573;-60
2023/05/01 10:34:18;;;;;;;10.70;7.93;;;;;;;20.85;75.42;96102.97;5144440;27;20113;-52
2023/05/01 10:36:53;;;;;;;12.18;8.93;;;;;;;21.19;77.39;96095.47;5138014;27;20148;-55
2023/05/01 10:39:39;;;;;;;9.38;7.40;;;;;;;20.91;76.57;96088.72;5141916;27;20089;-60
2023/05/01 10:42:13;;;;;;;11.70;8.80;;;;;;;20.36;88.04;96099.16;5149619;27;20105;-55
2023/05/01 10:44:42;;;;;;;10.52;8.05;;;;;;;20.81;84.52;96099.09;5142620;27;20081;-59
2023/05/01 10:47:44;;;;;;;11.02;8.20;;;;;;;20.06;93.59;96105.09;5139013;27;20086;-61
2023/05/01 10:50:14;;;;;;;10.23;7.90;;;;;;;20.44;96.48;96098.91;5142984;27;20077;-55
2023/05/01 10:53:17;;;;;;;10.75;8.30;;;;;;;20.05;99.78;96100.75;5125039;27;20066;-57
2023/05/01 10:55:48;;;;;;;11.20;8.55;;;;;;;19.53;100.00;96096.38;5139867;27;20086;-53
2023/05/01 10:58:50;;;;;;;9.63;7.70;;;;;;;20.40;95.08;96086.97;5143288;27;20466;-57
2023/05/01 11:01:29;;;;;;;10.68;7.35;;;;;;;20.34;91.70;96083.31;5138204;27;20078;-55
2023/05/01 11:03:59;;;;;;;10.40;7.53;;;;;;;20.18;92.04;96086.50;5138645;27;20089;-59
2023/05/01 11:06:28;;;;;;;9.73;7.93;;;;;;;19.82;97.13;96087.91;5140655;27;20083;-57
2023/05/01 11:08:57;;;;;;;10.57;7.78;;;;;;;20.26;98.00;96080.06;5141378;27;20082;-58
2023/05/01 11:11:50;;;;;;;9.38;7.53;;;;;;;20.39;91.55;96082.66;5136669;27;20094;-54
2023/05/01 11:14:18;;;;;;;9.70;7.38;;;;;;;20.53;91.77;96088.78;5137004;27;20567;-59
2023/05/01 11:16:48;;;;;;;11.30;8.23;;;;;;;20.42;93.37;96082.22;5139187;27;20090;-60
2023/05/01 11:19:46;;;;;;;9.88;7.30;;;;;;;20.04;97.21;96072.34;5141995;27;20086;-59
2023/05/01 11:22:16;;;;;;;9.75;7.65;;;;;;;20.34;95.58;96083.31;5140048;27;20549;-56
2023/05/01 11:24:45;;;;;;;10.60;7.97;;;;;;;20.25;96.20;96071.19;5140409;27;20082;-57
2023/05/01 11:27:14;;;;;;;11.00;7.68;;;;;;;19.82;100.00;96071.84;5137343;27;20475;-59
2023/05/01 11:29:45;;;;;;;13.47;8.90;;;;;;;20.01;100.00;96072.78;5141625;27;20086;-54
2023/05/01 11:32:17;;;;;;;11.73;8.73;;;;;;;19.88;100.00;96078.19;5146224;27;20082;-56
2023/05/01 11:34:46;;;;;;;11.85;9.25;;;;;;;20.04;100.00;96076.88;5140549;27;20137;-58
2023/05/01 11:37:16;;;;;;;12.13;8.48;;;;;;;20.67;100.00;96081.47;5144427;27;20086;-52
2023/05/01 11:39:49;;;;;;;10.00;6.57;;;;;;;20.04;100.00;96084.91;5138948;27;20082;-53
2023/05/01 11:42:21;;;;;;;10.40;7.57;;;;;;;20.03;100.00;96076.06;5140979;27;20089;-59
2023/05/01 11:45:10;;;;;;;9.85;7.35;;;;;;;19.35;100.00;96081.81;5140747;27;20138;-50